sensor_id;sensor_type;location;lat;lon;timestamp;P1;durP1;ratioP1;P2;durP2;ratioP2
56269;SDS011;42176;43.240;27.880;2023-04-15T00:02:13;6.38;;;2.42;;
56269;SDS011;42176;43.240;27.880;2023-04-15T00:04:39;11.88;;;2.67;;
56269;SDS011;42176;43.240;27.880;2023-04-15T00:07:05;7.93;;;3.10;;
56269;SDS011;42176;43.240;27.880;2023-04-15T00:09:30;13.07;;;3.30;;
56269;SDS011;42176;43.240;27.880;2023-04-15T00:11:55;10.07;;;2.90;;
56269;SDS011;42176;43.240;27.880;2023-04-15T00:14:21;6.22;;;2.17;;
56269;SDS011;42176;43.240;27.880;2023-04-15T00:16:47;12.18;;;2.47;;
56269;SDS011;42176;43.240;27.880;2023-04-15T00:19:19;5.15;;;2.45;;
56269;SDS011;42176;43.240;27.880;2023-04-15T00:21:44;6.72;;;3.85;;
56269;SDS011;42176;43.240;27.880;2023-04-15T00:24:10;5.47;;;2.75;;
56269;SDS011;42176;43.240;27.880;2023-04-15T00:26:35;5.65;;;2.42;;
56269;SDS011;42176;43.240;27.880;2023-04-15T00:29:01;9.75;;;3.30;;
56269;SDS011;42176;43.240;27.880;2023-04-15T00:31:26;8.15;;;2.53;;
56269;SDS011;42176;43.240;27.880;2023-04-15T00:33:52;7.22;;;2.40;;
56269;SDS011;42176;43.240;27.880;2023-04-15T00:36:17;6.68;;;3.13;;
56269;SDS011;42176;43.240;27.880;2023-04-15T00:38:43;8.60;;;2.70;;
56269;SDS011;42176;43.240;27.880;2023-04-15T00:41:08;6.70;;;2.13;;
56269;SDS011;42176;43.240;27.880;2023-04-15T00:43:35;9.20;;;3.95;;
56269;SDS011;42176;43.240;27.880;2023-04-15T00:46:00;8.65;;;2.50;;
56269;SDS011;42176;43.240;27.880;2023-04-15T00:48:30;5.47;;;2.60;;
56269;SDS011;42176;43.240;27.880;2023-04-15T00:50:56;8.55;;;2.33;;
56269;SDS011;42176;43.240;27.880;2023-04-15T00:53:22;9.65;;;3.45;;
56269;SDS011;42176;43.240;27.880;2023-04-15T00:55:48;7.72;;;3.05;;
56269;SDS011;42176;43.240;27.880;2023-04-15T00:58:13;5.65;;;2.85;;
56269;SDS011;42176;43.240;27.880;2023-04-15T01:00:40;7.35;;;2.95;;
56269;SDS011;42176;43.240;27.880;2023-04-15T01:03:06;4.90;;;2.45;;
56269;SDS011;42176;43.240;27.880;2023-04-15T01:05:32;8.15;;;3.40;;
56269;SDS011;42176;43.240;27.880;2023-04-15T01:07:58;3.92;;;2.35;;
56269;SDS011;42176;43.240;27.880;2023-04-15T01:10:23;8.73;;;2.33;;
56269;SDS011;42176;43.240;27.880;2023-04-15T01:12:49;5.80;;;2.35;;
56269;SDS011;42176;43.240;27.880;2023-04-15T01:15:15;14.35;;;2.70;;
56269;SDS011;42176;43.240;27.880;2023-04-15T01:17:40;10.68;;;2.55;;
56269;SDS011;42176;43.240;27.880;2023-04-15T01:20:07;5.10;;;2.70;;
56269;SDS011;42176;43.240;27.880;2023-04-15T01:22:34;5.30;;;2.58;;
56269;SDS011;42176;43.240;27.880;2023-04-15T01:25:01;10.27;;;2.50;;
56269;SDS011;42176;43.240;27.880;2023-04-15T01:27:32;5.80;;;2.30;;
56269;SDS011;42176;43.240;27.880;2023-04-15T01:29:59;8.95;;;2.72;;
56269;SDS011;42176;43.240;27.880;2023-04-15T01:32:25;4.68;;;2.50;;
56269;SDS011;42176;43.240;27.880;2023-04-15T01:34:51;13.75;;;2.60;;
56269;SDS011;42176;43.240;27.880;2023-04-15T01:37:16;10.00;;;2.63;;
56269;SDS011;42176;43.240;27.880;2023-04-15T01:39:42;10.23;;;3.10;;
56269;SDS011;42176;43.240;27.880;2023-04-15T01:42:08;7.85;;;2.83;;
56269;SDS011;42176;43.240;27.880;2023-04-15T01:44:34;11.48;;;3.28;;
56269;SDS011;42176;43.240;27.880;2023-04-15T01:46:59;9.48;;;2.28;;
56269;SDS011;42176;43.240;27.880;2023-04-15T01:49:25;12.52;;;2.90;;
56269;SDS011;42176;43.240;27.880;2023-04-15T01:51:50;11.15;;;3.15;;
56269;SDS011;42176;43.240;27.880;2023-04-15T01:54:15;12.15;;;2.63;;
56269;SDS011;42176;43.240;27.880;2023-04-15T01:56:41;7.85;;;2.30;;
56269;SDS011;42176;43.240;27.880;2023-04-15T01:59:06;9.35;;;2.30;;
56269;SDS011;42176;43.240;27.880;2023-04-15T02:01:32;7.05;;;2.92;;
56269;SDS011;42176;43.240;27.880;2023-04-15T02:03:58;10.80;;;3.20;;
56269;SDS011;42176;43.240;27.880;2023-04-15T02:06:23;10.38;;;2.83;;
56269;SDS011;42176;43.240;27.880;2023-04-15T02:08:49;9.45;;;2.88;;
56269;SDS011;42176;43.240;27.880;2023-04-15T02:11:14;9.85;;;3.20;;
56269;SDS011;42176;43.240;27.880;2023-04-15T02:13:40;13.80;;;3.08;;
56269;SDS011;42176;43.240;27.880;2023-04-15T02:16:14;8.23;;;2.30;;
56269;SDS011;42176;43.240;27.880;2023-04-15T02:18:41;8.63;;;3.03;;
56269;SDS011;42176;43.240;27.880;2023-04-15T02:21:07;5.80;;;2.83;;
56269;SDS011;42176;43.240;27.880;2023-04-15T02:23:33;5.85;;;2.50;;
56269;SDS011;42176;43.240;27.880;2023-04-15T02:25:58;17.02;;;3.33;;
56269;SDS011;42176;43.240;27.880;2023-04-15T02:28:24;12.55;;;3.08;;
56269;SDS011;42176;43.240;27.880;2023-04-15T02:30:49;9.07;;;2.40;;
56269;SDS011;42176;43.240;27.880;2023-04-15T02:33:16;9.90;;;2.65;;
56269;SDS011;42176;43.240;27.880;2023-04-15T02:35:42;8.18;;;2.83;;
56269;SDS011;42176;43.240;27.880;2023-04-15T02:38:09;5.25;;;2.63;;
56269;SDS011;42176;43.240;27.880;2023-04-15T02:40:35;14.25;;;3.10;;
56269;SDS011;42176;43.240;27.880;2023-04-15T02:43:01;7.07;;;2.67;;
56269;SDS011;42176;43.240;27.880;2023-04-15T02:45:27;13.75;;;2.42;;
56269;SDS011;42176;43.240;27.880;2023-04-15T02:47:52;12.23;;;2.88;;
56269;SDS011;42176;43.240;27.880;2023-04-15T02:50:18;9.77;;;2.88;;
56269;SDS011;42176;43.240;27.880;2023-04-15T02:52:45;8.43;;;2.80;;
56269;SDS011;42176;43.240;27.880;2023-04-15T02:55:10;6.55;;;2.90;;
56269;SDS011;42176;43.240;27.880;2023-04-15T02:57:36;14.52;;;3.75;;
56269;SDS011;42176;43.240;27.880;2023-04-15T03:00:03;13.50;;;3.80;;
56269;SDS011;42176;43.240;27.880;2023-04-15T03:02:33;8.38;;;2.72;;
56269;SDS011;42176;43.240;27.880;2023-04-15T03:07:28;7.85;;;2.78;;
56269;SDS011;42176;43.240;27.880;2023-04-15T03:09:53;8.57;;;3.78;;
56269;SDS011;42176;43.240;27.880;2023-04-15T03:12:19;11.98;;;3.08;;
56269;SDS011;42176;43.240;27.880;2023-04-15T03:14:45;9.30;;;3.05;;
56269;SDS011;42176;43.240;27.880;2023-04-15T03:17:10;11.55;;;3.40;;
56269;SDS011;42176;43.240;27.880;2023-04-15T03:19:36;8.77;;;3.20;;
56269;SDS011;42176;43.240;27.880;2023-04-15T03:22:01;10.32;;;3.25;;
56269;SDS011;42176;43.240;27.880;2023-04-15T03:24:27;11.32;;;3.53;;
56269;SDS011;42176;43.240;27.880;2023-04-15T03:26:54;13.18;;;3.63;;
56269;SDS011;42176;43.240;27.880;2023-04-15T03:29:20;10.57;;;2.53;;
56269;SDS011;42176;43.240;27.880;2023-04-15T03:31:45;15.85;;;3.22;;
56269;SDS011;42176;43.240;27.880;2023-04-15T03:34:11;13.15;;;4.05;;
56269;SDS011;42176;43.240;27.880;2023-04-15T03:36:36;8.95;;;2.95;;
56269;SDS011;42176;43.240;27.880;2023-04-15T03:39:02;5.28;;;2.53;;
56269;SDS011;42176;43.240;27.880;2023-04-15T03:41:28;5.60;;;2.75;;
56269;SDS011;42176;43.240;27.880;2023-04-15T03:43:53;19.63;;;3.67;;
56269;SDS011;42176;43.240;27.880;2023-04-15T03:46:19;15.68;;;3.17;;
56269;SDS011;42176;43.240;27.880;2023-04-15T03:48:45;10.50;;;3.33;;
56269;SDS011;42176;43.240;27.880;2023-04-15T03:51:11;9.65;;;2.83;;
56269;SDS011;42176;43.240;27.880;2023-04-15T03:53:36;8.63;;;3.13;;
56269;SDS011;42176;43.240;27.880;2023-04-15T03:56:02;17.73;;;4.20;;
56269;SDS011;42176;43.240;27.880;2023-04-15T03:58:27;12.00;;;3.40;;
56269;SDS011;42176;43.240;27.880;2023-04-15T04:00:52;10.80;;;3.10;;
56269;SDS011;42176;43.240;27.880;2023-04-15T04:03:19;8.85;;;2.45;;
56269;SDS011;42176;43.240;27.880;2023-04-15T04:05:44;13.18;;;3.47;;
56269;SDS011;42176;43.240;27.880;2023-04-15T04:08:10;10.00;;;3.33;;
56269;SDS011;42176;43.240;27.880;2023-04-15T04:10:37;14.93;;;3.72;;
56269;SDS011;42176;43.240;27.880;2023-04-15T04:13:03;7.25;;;3.42;;
56269;SDS011;42176;43.240;27.880;2023-04-15T04:15:29;5.82;;;3.03;;
56269;SDS011;42176;43.240;27.880;2023-04-15T04:17:55;7.85;;;3.92;;
56269;SDS011;42176;43.240;27.880;2023-04-15T04:20:20;15.05;;;3.65;;
56269;SDS011;42176;43.240;27.880;2023-04-15T04:22:46;9.23;;;3.00;;
56269;SDS011;42176;43.240;27.880;2023-04-15T04:25:11;9.65;;;3.25;;
56269;SDS011;42176;43.240;27.880;2023-04-15T04:27:37;7.60;;;3.30;;
56269;SDS011;42176;43.240;27.880;2023-04-15T04:30:03;8.90;;;2.95;;
56269;SDS011;42176;43.240;27.880;2023-04-15T04:32:29;12.10;;;3.17;;
56269;SDS011;42176;43.240;27.880;2023-04-15T04:34:55;8.15;;;2.72;;
56269;SDS011;42176;43.240;27.880;2023-04-15T04:37:20;7.60;;;2.50;;
56269;SDS011;42176;43.240;27.880;2023-04-15T04:39:47;7.45;;;3.33;;
56269;SDS011;42176;43.240;27.880;2023-04-15T04:42:12;10.68;;;3.28;;
56269;SDS011;42176;43.240;27.880;2023-04-15T04:44:38;8.52;;;2.63;;
56269;SDS011;42176;43.240;27.880;2023-04-15T04:47:03;8.82;;;3.67;;
56269;SDS011;42176;43.240;27.880;2023-04-15T04:49:29;7.55;;;3.40;;
56269;SDS011;42176;43.240;27.880;2023-04-15T04:51:54;12.10;;;3.33;;
56269;SDS011;42176;43.240;27.880;2023-04-15T04:54:20;5.25;;;3.03;;
56269;SDS011;42176;43.240;27.880;2023-04-15T04:56:46;12.43;;;3.20;;
56269;SDS011;42176;43.240;27.880;2023-04-15T04:59:11;8.85;;;4.03;;
56269;SDS011;42176;43.240;27.880;2023-04-15T05:01:37;7.85;;;3.42;;
56269;SDS011;42176;43.240;27.880;2023-04-15T05:04:02;10.45;;;3.25;;
56269;SDS011;42176;43.240;27.880;2023-04-15T05:06:29;11.35;;;3.50;;
56269;SDS011;42176;43.240;27.880;2023-04-15T05:08:55;12.77;;;3.65;;
56269;SDS011;42176;43.240;27.880;2023-04-15T05:11:20;11.55;;;3.78;;
56269;SDS011;42176;43.240;27.880;2023-04-15T05:13:46;13.68;;;3.88;;
56269;SDS011;42176;43.240;27.880;2023-04-15T05:16:11;8.13;;;2.97;;
56269;SDS011;42176;43.240;27.880;2023-04-15T05:18:37;7.90;;;3.42;;
56269;SDS011;42176;43.240;27.880;2023-04-15T05:21:02;14.43;;;4.10;;
56269;SDS011;42176;43.240;27.880;2023-04-15T05:23:28;11.30;;;3.78;;
56269;SDS011;42176;43.240;27.880;2023-04-15T05:25:53;11.43;;;3.38;;
56269;SDS011;42176;43.240;27.880;2023-04-15T05:28:19;13.00;;;3.13;;
56269;SDS011;42176;43.240;27.880;2023-04-15T05:30:45;16.45;;;4.25;;
56269;SDS011;42176;43.240;27.880;2023-04-15T05:33:10;7.30;;;3.50;;
56269;SDS011;42176;43.240;27.880;2023-04-15T05:35:36;17.08;;;4.22;;
56269;SDS011;42176;43.240;27.880;2023-04-15T05:38:01;9.63;;;3.30;;
56269;SDS011;42176;43.240;27.880;2023-04-15T05:40:27;13.70;;;3.47;;
56269;SDS011;42176;43.240;27.880;2023-04-15T05:42:54;15.13;;;5.60;;
56269;SDS011;42176;43.240;27.880;2023-04-15T05:45:20;16.48;;;3.67;;
56269;SDS011;42176;43.240;27.880;2023-04-15T05:47:46;17.38;;;3.72;;
56269;SDS011;42176;43.240;27.880;2023-04-15T05:50:11;13.45;;;3.25;;
56269;SDS011;42176;43.240;27.880;2023-04-15T05:52:37;12.05;;;4.38;;
56269;SDS011;42176;43.240;27.880;2023-04-15T05:55:02;11.30;;;3.33;;
56269;SDS011;42176;43.240;27.880;2023-04-15T05:57:28;8.73;;;3.78;;
56269;SDS011;42176;43.240;27.880;2023-04-15T05:59:53;10.93;;;3.45;;
56269;SDS011;42176;43.240;27.880;2023-04-15T06:02:21;10.80;;;3.28;;
56269;SDS011;42176;43.240;27.880;2023-04-15T06:04:46;12.90;;;3.85;;
56269;SDS011;42176;43.240;27.880;2023-04-15T06:07:12;14.73;;;4.03;;
56269;SDS011;42176;43.240;27.880;2023-04-15T06:09:38;9.63;;;3.53;;
56269;SDS011;42176;43.240;27.880;2023-04-15T06:12:03;15.25;;;4.25;;
56269;SDS011;42176;43.240;27.880;2023-04-15T06:14:30;15.35;;;5.88;;
56269;SDS011;42176;43.240;27.880;2023-04-15T06:16:56;9.57;;;5.35;;
56269;SDS011;42176;43.240;27.880;2023-04-15T06:19:21;13.65;;;5.78;;
56269;SDS011;42176;43.240;27.880;2023-04-15T06:21:47;14.80;;;5.85;;
56269;SDS011;42176;43.240;27.880;2023-04-15T06:24:12;24.00;;;6.20;;
56269;SDS011;42176;43.240;27.880;2023-04-15T06:26:38;13.27;;;5.85;;
56269;SDS011;42176;43.240;27.880;2023-04-15T06:29:03;17.85;;;6.68;;
56269;SDS011;42176;43.240;27.880;2023-04-15T06:31:29;14.30;;;7.28;;
56269;SDS011;42176;43.240;27.880;2023-04-15T06:33:54;13.15;;;6.20;;
56269;SDS011;42176;43.240;27.880;2023-04-15T06:36:20;12.57;;;6.00;;
56269;SDS011;42176;43.240;27.880;2023-04-15T06:38:45;13.13;;;7.57;;
56269;SDS011;42176;43.240;27.880;2023-04-15T06:41:11;14.40;;;6.53;;
56269;SDS011;42176;43.240;27.880;2023-04-15T06:43:37;16.52;;;6.13;;
56269;SDS011;42176;43.240;27.880;2023-04-15T06:46:03;12.60;;;7.07;;
56269;SDS011;42176;43.240;27.880;2023-04-15T06:48:28;14.55;;;6.45;;
56269;SDS011;42176;43.240;27.880;2023-04-15T06:50:54;12.18;;;6.57;;
56269;SDS011;42176;43.240;27.880;2023-04-15T06:53:19;11.52;;;5.82;;
56269;SDS011;42176;43.240;27.880;2023-04-15T06:55:46;14.52;;;6.70;;
56269;SDS011;42176;43.240;27.880;2023-04-15T06:58:11;11.48;;;6.07;;
56269;SDS011;42176;43.240;27.880;2023-04-15T07:00:36;12.77;;;6.13;;
56269;SDS011;42176;43.240;27.880;2023-04-15T07:03:03;16.08;;;5.93;;
56269;SDS011;42176;43.240;27.880;2023-04-15T07:05:29;20.98;;;7.50;;
56269;SDS011;42176;43.240;27.880;2023-04-15T07:07:55;13.10;;;6.45;;
56269;SDS011;42176;43.240;27.880;2023-04-15T07:10:21;15.57;;;6.90;;
56269;SDS011;42176;43.240;27.880;2023-04-15T07:12:47;8.90;;;5.53;;
56269;SDS011;42176;43.240;27.880;2023-04-15T07:15:13;10.85;;;3.97;;
56269;SDS011;42176;43.240;27.880;2023-04-15T07:17:39;5.57;;;2.97;;
56269;SDS011;42176;43.240;27.880;2023-04-15T07:20:07;9.50;;;3.45;;
56269;SDS011;42176;43.240;27.880;2023-04-15T07:22:33;8.90;;;2.65;;
56269;SDS011;42176;43.240;27.880;2023-04-15T07:24:58;7.72;;;2.85;;
56269;SDS011;42176;43.240;27.880;2023-04-15T07:27:24;7.57;;;3.40;;
56269;SDS011;42176;43.240;27.880;2023-04-15T07:29:50;8.35;;;3.92;;
56269;SDS011;42176;43.240;27.880;2023-04-15T07:32:16;6.13;;;4.15;;
56269;SDS011;42176;43.240;27.880;2023-04-15T07:34:41;8.00;;;3.60;;
56269;SDS011;42176;43.240;27.880;2023-04-15T07:37:08;7.72;;;3.90;;
56269;SDS011;42176;43.240;27.880;2023-04-15T07:39:33;8.50;;;4.05;;
56269;SDS011;42176;43.240;27.880;2023-04-15T07:41:59;11.32;;;3.88;;
56269;SDS011;42176;43.240;27.880;2023-04-15T07:44:25;8.70;;;4.57;;
56269;SDS011;42176;43.240;27.880;2023-04-15T07:46:51;11.35;;;4.25;;
56269;SDS011;42176;43.240;27.880;2023-04-15T07:49:16;5.75;;;3.03;;
56269;SDS011;42176;43.240;27.880;2023-04-15T07:51:43;6.95;;;2.75;;
56269;SDS011;42176;43.240;27.880;2023-04-15T07:54:09;5.18;;;2.03;;
56269;SDS011;42176;43.240;27.880;2023-04-15T07:56:34;8.00;;;2.70;;
56269;SDS011;42176;43.240;27.880;2023-04-15T07:58:59;5.60;;;2.40;;
56269;SDS011;42176;43.240;27.880;2023-04-15T08:01:26;4.10;;;1.70;;
56269;SDS011;42176;43.240;27.880;2023-04-15T08:03:51;3.95;;;2.45;;
56269;SDS011;42176;43.240;27.880;2023-04-15T08:06:17;5.22;;;2.75;;
56269;SDS011;42176;43.240;27.880;2023-04-15T08:08:42;4.18;;;2.15;;
56269;SDS011;42176;43.240;27.880;2023-04-15T08:11:08;7.53;;;2.08;;
56269;SDS011;42176;43.240;27.880;2023-04-15T08:13:33;4.65;;;1.90;;
56269;SDS011;42176;43.240;27.880;2023-04-15T08:18:45;5.32;;;1.95;;
56269;SDS011;42176;43.240;27.880;2023-04-15T08:21:14;3.95;;;1.73;;
56269;SDS011;42176;43.240;27.880;2023-04-15T08:23:40;3.20;;;1.77;;
56269;SDS011;42176;43.240;27.880;2023-04-15T08:26:06;5.40;;;2.08;;
56269;SDS011;42176;43.240;27.880;2023-04-15T08:28:32;3.03;;;1.90;;
56269;SDS011;42176;43.240;27.880;2023-04-15T08:30:58;5.28;;;2.03;;
56269;SDS011;42176;43.240;27.880;2023-04-15T08:33:24;4.97;;;1.88;;
56269;SDS011;42176;43.240;27.880;2023-04-15T08:35:50;6.00;;;1.83;;
56269;SDS011;42176;43.240;27.880;2023-04-15T08:38:15;4.63;;;1.90;;
56269;SDS011;42176;43.240;27.880;2023-04-15T08:40:42;4.50;;;2.45;;
56269;SDS011;42176;43.240;27.880;2023-04-15T08:43:09;7.90;;;2.78;;
56269;SDS011;42176;43.240;27.880;2023-04-15T08:45:39;4.93;;;2.15;;
56269;SDS011;42176;43.240;27.880;2023-04-15T08:48:06;4.00;;;1.83;;
56269;SDS011;42176;43.240;27.880;2023-04-15T08:50:37;4.57;;;1.70;;
56269;SDS011;42176;43.240;27.880;2023-04-15T08:53:03;3.28;;;1.95;;
56269;SDS011;42176;43.240;27.880;2023-04-15T08:55:29;4.15;;;1.50;;
56269;SDS011;42176;43.240;27.880;2023-04-15T08:58:00;5.95;;;1.35;;
56269;SDS011;42176;43.240;27.880;2023-04-15T09:00:26;4.53;;;1.73;;
56269;SDS011;42176;43.240;27.880;2023-04-15T09:02:53;5.72;;;1.40;;
56269;SDS011;42176;43.240;27.880;2023-04-15T09:05:20;2.75;;;1.50;;
56269;SDS011;42176;43.240;27.880;2023-04-15T09:07:47;2.47;;;1.20;;
56269;SDS011;42176;43.240;27.880;2023-04-15T09:10:14;1.15;;;1.00;;
56269;SDS011;42176;43.240;27.880;2023-04-15T09:12:39;2.38;;;1.17;;
56269;SDS011;42176;43.240;27.880;2023-04-15T09:15:05;4.47;;;1.52;;
56269;SDS011;42176;43.240;27.880;2023-04-15T09:17:36;2.20;;;1.13;;
56269;SDS011;42176;43.240;27.880;2023-04-15T09:22:40;5.95;;;1.90;;
56269;SDS011;42176;43.240;27.880;2023-04-15T09:25:27;3.55;;;1.08;;
56269;SDS011;42176;43.240;27.880;2023-04-15T09:27:54;7.68;;;1.42;;
56269;SDS011;42176;43.240;27.880;2023-04-15T09:30:20;7.00;;;1.17;;
56269;SDS011;42176;43.240;27.880;2023-04-15T09:32:50;3.60;;;1.52;;
56269;SDS011;42176;43.240;27.880;2023-04-15T09:35:19;4.45;;;1.50;;
56269;SDS011;42176;43.240;27.880;2023-04-15T09:37:46;2.08;;;1.10;;
56269;SDS011;42176;43.240;27.880;2023-04-15T09:40:12;2.17;;;1.40;;
56269;SDS011;42176;43.240;27.880;2023-04-15T09:42:56;2.72;;;1.10;;
56269;SDS011;42176;43.240;27.880;2023-04-15T09:45:22;1.83;;;1.23;;
56269;SDS011;42176;43.240;27.880;2023-04-15T09:47:48;8.18;;;1.30;;
56269;SDS011;42176;43.240;27.880;2023-04-15T09:50:15;2.95;;;1.13;;
56269;SDS011;42176;43.240;27.880;2023-04-15T09:52:42;2.17;;;1.30;;
56269;SDS011;42176;43.240;27.880;2023-04-15T09:55:08;2.92;;;1.30;;
56269;SDS011;42176;43.240;27.880;2023-04-15T09:57:35;5.70;;;1.10;;
56269;SDS011;42176;43.240;27.880;2023-04-15T10:00:06;2.65;;;1.17;;
56269;SDS011;42176;43.240;27.880;2023-04-15T10:02:33;1.63;;;1.15;;
56269;SDS011;42176;43.240;27.880;2023-04-15T10:05:00;1.88;;;1.15;;
56269;SDS011;42176;43.240;27.880;2023-04-15T10:07:27;2.10;;;0.90;;
56269;SDS011;42176;43.240;27.880;2023-04-15T10:09:53;2.55;;;1.55;;
56269;SDS011;42176;43.240;27.880;2023-04-15T10:12:20;2.17;;;1.10;;
56269;SDS011;42176;43.240;27.880;2023-04-15T10:14:55;3.65;;;1.42;;
56269;SDS011;42176;43.240;27.880;2023-04-15T10:17:23;2.72;;;1.08;;
56269;SDS011;42176;43.240;27.880;2023-04-15T10:19:53;3.15;;;1.45;;
56269;SDS011;42176;43.240;27.880;2023-04-15T10:22:19;3.90;;;1.40;;
56269;SDS011;42176;43.240;27.880;2023-04-15T10:24:46;4.97;;;1.25;;
56269;SDS011;42176;43.240;27.880;2023-04-15T10:27:12;3.78;;;1.52;;
56269;SDS011;42176;43.240;27.880;2023-04-15T10:29:38;3.08;;;1.25;;
56269;SDS011;42176;43.240;27.880;2023-04-15T10:32:04;4.95;;;1.52;;
56269;SDS011;42176;43.240;27.880;2023-04-15T10:34:31;55.33;;;3.90;;
56269;SDS011;42176;43.240;27.880;2023-04-15T10:36:57;3.05;;;1.63;;
56269;SDS011;42176;43.240;27.880;2023-04-15T10:42:09;2.58;;;1.50;;
56269;SDS011;42176;43.240;27.880;2023-04-15T10:44:43;2.63;;;1.00;;
56269;SDS011;42176;43.240;27.880;2023-04-15T10:47:12;0.90;;;0.80;;
56269;SDS011;42176;43.240;27.880;2023-04-15T10:49:46;1.80;;;1.00;;
56269;SDS011;42176;43.240;27.880;2023-04-15T10:52:15;4.55;;;1.20;;
56269;SDS011;42176;43.240;27.880;2023-04-15T10:54:42;65.63;;;5.35;;
56269;SDS011;42176;43.240;27.880;2023-04-15T10:57:08;3.05;;;1.05;;
56269;SDS011;42176;43.240;27.880;2023-04-15T11:02:37;1.35;;;0.90;;
56269;SDS011;42176;43.240;27.880;2023-04-15T11:05:04;2.50;;;0.80;;
56269;SDS011;42176;43.240;27.880;2023-04-15T11:07:33;2.42;;;1.02;;
56269;SDS011;42176;43.240;27.880;2023-04-15T11:10:53;3.92;;;0.90;;
56269;SDS011;42176;43.240;27.880;2023-04-15T11:13:03;1.85;;;1.23;;
56269;SDS011;42176;43.240;27.880;2023-04-15T11:15:39;3.72;;;0.98;;
56269;SDS011;42176;43.240;27.880;2023-04-15T11:20:55;1.63;;;0.80;;
56269;SDS011;42176;43.240;27.880;2023-04-15T11:23:33;1.45;;;1.08;;
56269;SDS011;42176;43.240;27.880;2023-04-15T11:25:59;0.80;;;0.68;;
56269;SDS011;42176;43.240;27.880;2023-04-15T11:28:27;1.10;;;0.85;;
56269;SDS011;42176;43.240;27.880;2023-04-15T11:30:53;4.50;;;1.40;;
56269;SDS011;42176;43.240;27.880;2023-04-15T11:33:20;6.80;;;1.63;;
56269;SDS011;42176;43.240;27.880;2023-04-15T11:35:46;3.45;;;1.20;;
56269;SDS011;42176;43.240;27.880;2023-04-15T11:38:13;4.70;;;1.20;;
56269;SDS011;42176;43.240;27.880;2023-04-15T11:40:40;4.72;;;1.40;;
56269;SDS011;42176;43.240;27.880;2023-04-15T11:43:10;1.98;;;1.13;;
56269;SDS011;42176;43.240;27.880;2023-04-15T11:45:55;3.72;;;1.23;;
56269;SDS011;42176;43.240;27.880;2023-04-15T11:48:23;4.50;;;1.10;;
56269;SDS011;42176;43.240;27.880;2023-04-15T11:50:54;2.45;;;1.27;;
56269;SDS011;42176;43.240;27.880;2023-04-15T11:53:21;5.70;;;1.00;;
56269;SDS011;42176;43.240;27.880;2023-04-15T11:55:49;1.08;;;0.75;;
56269;SDS011;42176;43.240;27.880;2023-04-15T11:58:17;4.70;;;1.35;;
56269;SDS011;42176;43.240;27.880;2023-04-15T12:03:31;3.47;;;1.42;;
56269;SDS011;42176;43.240;27.880;2023-04-15T12:11:32;3.25;;;1.05;;
56269;SDS011;42176;43.240;27.880;2023-04-15T12:16:47;1.58;;;1.45;;
56269;SDS011;42176;43.240;27.880;2023-04-15T12:19:16;2.35;;;1.38;;
56269;SDS011;42176;43.240;27.880;2023-04-15T12:21:46;3.88;;;1.75;;
56269;SDS011;42176;43.240;27.880;2023-04-15T12:24:14;3.38;;;1.20;;
56269;SDS011;42176;43.240;27.880;2023-04-15T12:29:10;3.83;;;1.00;;
56269;SDS011;42176;43.240;27.880;2023-04-15T12:31:42;2.05;;;1.23;;
56269;SDS011;42176;43.240;27.880;2023-04-15T12:37:00;2.78;;;1.05;;
56269;SDS011;42176;43.240;27.880;2023-04-15T12:39:28;3.35;;;1.23;;
56269;SDS011;42176;43.240;27.880;2023-04-15T12:41:56;3.90;;;1.10;;
56269;SDS011;42176;43.240;27.880;2023-04-15T12:44:22;4.65;;;1.05;;
56269;SDS011;42176;43.240;27.880;2023-04-15T12:46:48;5.82;;;1.30;;
56269;SDS011;42176;43.240;27.880;2023-04-15T12:49:14;2.08;;;1.30;;
56269;SDS011;42176;43.240;27.880;2023-04-15T12:51:40;5.85;;;1.70;;
56269;SDS011;42176;43.240;27.880;2023-04-15T12:54:06;3.63;;;0.85;;
56269;SDS011;42176;43.240;27.880;2023-04-15T12:56:32;3.25;;;1.40;;
56269;SDS011;42176;43.240;27.880;2023-04-15T12:58:57;2.63;;;1.17;;
56269;SDS011;42176;43.240;27.880;2023-04-15T13:01:23;3.17;;;1.42;;
56269;SDS011;42176;43.240;27.880;2023-04-15T13:03:48;3.92;;;0.60;;
56269;SDS011;42176;43.240;27.880;2023-04-15T13:06:15;4.57;;;1.13;;
56269;SDS011;42176;43.240;27.880;2023-04-15T13:08:41;7.05;;;1.00;;
56269;SDS011;42176;43.240;27.880;2023-04-15T13:11:07;4.20;;;1.10;;
56269;SDS011;42176;43.240;27.880;2023-04-15T13:13:32;2.78;;;1.00;;
56269;SDS011;42176;43.240;27.880;2023-04-15T13:15:58;3.53;;;0.80;;
56269;SDS011;42176;43.240;27.880;2023-04-15T13:18:24;5.05;;;0.88;;
56269;SDS011;42176;43.240;27.880;2023-04-15T13:20:49;7.13;;;1.23;;
56269;SDS011;42176;43.240;27.880;2023-04-15T13:23:15;2.05;;;0.60;;
56269;SDS011;42176;43.240;27.880;2023-04-15T13:25:41;1.27;;;1.02;;
56269;SDS011;42176;43.240;27.880;2023-04-15T13:28:09;3.35;;;1.10;;
56269;SDS011;42176;43.240;27.880;2023-04-15T13:30:36;3.58;;;0.93;;
56269;SDS011;42176;43.240;27.880;2023-04-15T13:33:02;4.72;;;1.00;;
56269;SDS011;42176;43.240;27.880;2023-04-15T13:35:28;4.30;;;1.10;;
56269;SDS011;42176;43.240;27.880;2023-04-15T13:37:53;5.10;;;1.10;;
56269;SDS011;42176;43.240;27.880;2023-04-15T13:40:20;2.42;;;1.00;;
56269;SDS011;42176;43.240;27.880;2023-04-15T13:42:45;4.05;;;1.10;;
56269;SDS011;42176;43.240;27.880;2023-04-15T13:45:11;2.63;;;1.00;;
56269;SDS011;42176;43.240;27.880;2023-04-15T13:47:36;7.88;;;1.02;;
56269;SDS011;42176;43.240;27.880;2023-04-15T13:50:02;3.10;;;0.85;;
56269;SDS011;42176;43.240;27.880;2023-04-15T13:52:28;3.25;;;0.88;;
56269;SDS011;42176;43.240;27.880;2023-04-15T13:54:53;4.80;;;1.10;;
56269;SDS011;42176;43.240;27.880;2023-04-15T13:57:19;2.15;;;0.98;;
56269;SDS011;42176;43.240;27.880;2023-04-15T13:59:44;5.40;;;0.98;;
56269;SDS011;42176;43.240;27.880;2023-04-15T14:02:10;3.25;;;1.13;;
56269;SDS011;42176;43.240;27.880;2023-04-15T14:04:36;3.03;;;0.93;;
56269;SDS011;42176;43.240;27.880;2023-04-15T14:07:02;1.42;;;0.77;;
56269;SDS011;42176;43.240;27.880;2023-04-15T14:09:27;5.90;;;1.15;;
56269;SDS011;42176;43.240;27.880;2023-04-15T14:11:53;4.75;;;0.90;;
56269;SDS011;42176;43.240;27.880;2023-04-15T14:14:19;3.30;;;1.05;;
56269;SDS011;42176;43.240;27.880;2023-04-15T14:16:44;3.35;;;1.02;;
56269;SDS011;42176;43.240;27.880;2023-04-15T14:19:10;4.05;;;0.90;;
56269;SDS011;42176;43.240;27.880;2023-04-15T14:21:35;3.08;;;1.02;;
56269;SDS011;42176;43.240;27.880;2023-04-15T14:24:01;3.13;;;0.80;;
56269;SDS011;42176;43.240;27.880;2023-04-15T14:26:26;8.38;;;1.20;;
56269;SDS011;42176;43.240;27.880;2023-04-15T14:28:51;3.08;;;1.45;;
56269;SDS011;42176;43.240;27.880;2023-04-15T14:31:17;4.00;;;1.05;;
56269;SDS011;42176;43.240;27.880;2023-04-15T14:33:43;5.85;;;1.58;;
56269;SDS011;42176;43.240;27.880;2023-04-15T14:36:10;3.90;;;1.17;;
56269;SDS011;42176;43.240;27.880;2023-04-15T14:38:36;2.72;;;1.48;;
56269;SDS011;42176;43.240;27.880;2023-04-15T14:41:05;6.82;;;1.00;;
56269;SDS011;42176;43.240;27.880;2023-04-15T14:43:32;4.50;;;1.17;;
56269;SDS011;42176;43.240;27.880;2023-04-15T14:45:58;7.00;;;1.77;;
56269;SDS011;42176;43.240;27.880;2023-04-15T14:48:23;3.60;;;1.40;;
56269;SDS011;42176;43.240;27.880;2023-04-15T14:50:49;1.70;;;1.17;;
56269;SDS011;42176;43.240;27.880;2023-04-15T14:53:15;6.72;;;2.20;;
56269;SDS011;42176;43.240;27.880;2023-04-15T14:55:40;4.97;;;1.90;;
56269;SDS011;42176;43.240;27.880;2023-04-15T14:58:06;4.05;;;1.70;;
56269;SDS011;42176;43.240;27.880;2023-04-15T15:00:33;4.22;;;1.90;;